Time;durP1;ratioP1;P1;durP2;ratioP2;P2;SDS_P1;SDS_P2;PMS_P1;PMS_P2;Temp;Humidity;BMP_temperature;BMP_pressure;BME280_temperature;BME280_humidity;BME280_pressure;Samples;Min_cycle;Max_cycle;Signal;HPM_P1;HPM_P2
2022/02/14 05:39:35;;;;;;;39.83;16.82;;;;;;;-5.29;82.62;101430.16;1679247;84;21069;-45
2022/02/14 05:42:03;;;;;;;48.00;18.32;;;;;;;-5.20;81.85;101431.30;1664008;84;21669;-37
2022/02/14 05:44:30;;;;;;;35.13;17.23;;;;;;;-5.12;81.63;101421.31;1674989;84;21372;-45
2022/02/14 05:46:57;;;;;;;30.17;16.27;;;;;;;-5.06;81.42;101425.62;1644900;84;21558;-37
2022/02/14 05:49:24;;;;;;;37.78;17.12;;;;;;;-4.99;81.30;101420.63;1671377;84;21056;-44
2022/02/14 05:51:51;;;;;;;39.63;17.52;;;;;;;-4.95;80.93;101429.93;1671879;84;21614;-37
2022/02/14 05:54:17;;;;;;;41.60;16.55;;;;;;;-4.92;80.83;101427.64;1673004;84;20999;-37
2022/02/14 05:56:44;;;;;;;43.83;18.50;;;;;;;-4.85;80.62;101431.56;1678997;83;21044;-37
2022/02/14 05:59:11;;;;;;;51.10;22.42;;;;;;;-4.77;80.70;101430.49;1673970;83;21489;-37
2022/02/14 06:01:38;;;;;;;45.48;21.65;;;;;;;-4.70;80.89;101431.86;1672565;83;21036;-38
2022/02/14 06:04:04;;;;;;;46.23;24.90;;;;;;;-4.65;81.12;101428.90;1677688;83;21539;-37
2022/02/14 06:06:38;;;;;;;53.83;27.52;;;;;;;-4.57;81.59;101433.35;1676022;83;21055;-44
2022/02/14 06:09:03;;;;;;;55.23;23.42;;;;;;;-4.46;82.08;101442.75;1679657;83;21080;-38
2022/02/14 06:11:30;;;;;;;41.02;20.77;;;;;;;-4.37;81.99;101439.61;1657740;85;21022;-36
2022/02/14 06:13:57;;;;;;;57.05;22.95;;;;;;;-4.34;81.89;101446.64;1677496;83;20981;-45
2022/02/14 06:16:29;;;;;;;47.13;23.60;;;;;;;-4.32;81.99;101448.92;1681975;83;21078;-36
2022/02/14 06:18:58;;;;;;;54.53;25.45;;;;;;;-4.28;82.36;101449.67;1596343;83;21457;-44
2022/02/14 06:21:25;;;;;;;54.15;22.98;;;;;;;-4.19;82.55;101453.30;1673563;83;21628;-44
2022/02/14 06:23:52;;;;;;;45.88;22.70;;;;;;;-4.09;82.69;101452.86;1655988;85;21385;-44
2022/02/14 06:26:22;;;;;;;54.45;22.80;;;;;;;-3.99;82.81;101452.30;1671926;83;21132;-45
2022/02/14 06:28:49;;;;;;;44.85;20.35;;;;;;;-3.86;82.99;101455.00;1661015;83;21013;-37
2022/02/14 06:31:26;;;;;;;48.25;23.85;;;;;;;-3.70;83.01;101449.38;1675205;83;21065;-45
2022/02/14 06:33:51;;;;;;;48.08;24.10;;;;;;;-3.59;82.99;101449.41;1677004;83;21534;-37
2022/02/14 06:36:26;;;;;;;49.58;22.65;;;;;;;-3.42;83.04;101445.91;1682747;83;21062;-36
2022/02/14 06:38:56;;;;;;;38.05;20.62;;;;;;;-3.29;82.93;101436.70;1683181;83;21026;-37
2022/02/14 06:41:40;;;;;;;38.38;19.75;;;;;;;-3.14;82.76;101428.34;1687861;83;21060;-45
2022/02/14 06:44:07;;;;;;;39.20;19.37;;;;;;;-3.02;81.90;101435.62;1669796;84;21609;-37
2022/02/14 06:46:35;;;;;;;33.98;18.32;;;;;;;-2.92;81.25;101432.07;1657647;84;21049;-37
2022/02/14 06:49:06;;;;;;;43.87;19.35;;;;;;;-2.84;80.95;101437.34;1666277;84;21711;-45
2022/02/14 06:51:30;;;;;;;40.58;19.35;;;;;;;-2.76;80.89;101434.56;1647809;84;21386;-45
2022/02/14 06:53:57;;;;;;;38.50;20.20;;;;;;;-2.66;80.88;101436.11;1651218;85;20990;-45
2022/02/14 06:56:24;;;;;;;40.52;20.82;;;;;;;-2.55;79.93;101431.72;1685752;83;21045;-37
2022/02/14 06:58:51;;;;;;;43.80;22.02;;;;;;;-2.46;79.28;101431.09;1683703;83;20997;-37
2022/02/14 07:01:22;;;;;;;45.23;20.25;;;;;;;-2.37;79.47;101429.19;1687526;82;21142;-37
2022/02/14 07:03:49;;;;;;;47.05;21.87;;;;;;;-2.26;79.03;101425.70;1695097;81;21108;-43
2022/02/14 07:06:17;;;;;;;46.58;21.77;;;;;;;-2.19;78.52;101429.56;1705621;82;21497;-36
2022/02/14 07:08:44;;;;;;;49.53;23.18;;;;;;;-2.13;77.59;101432.55;1676601;81;21416;-45
2022/02/14 07:11:11;;;;;;;47.48;22.42;;;;;;;-2.05;77.57;101442.93;1678108;82;21684;-45
2022/02/14 07:13:38;;;;;;;41.63;22.22;;;;;;;-1.96;77.28;101438.84;1697044;81;20979;-45
2022/02/14 07:16:06;;;;;;;45.75;21.87;;;;;;;-1.88;77.06;101434.70;1697665;82;21057;-45
2022/02/14 07:18:37;;;;;;;44.13;23.30;;;;;;;-1.77;77.21;101427.73;1686097;82;21438;-46
2022/02/14 07:21:07;;;;;;;43.38;22.93;;;;;;;-1.66;76.86;101429.34;1668273;83;21037;-37
2022/02/14 07:23:35;;;;;;;45.60;23.77;;;;;;;-1.56;77.34;101428.30;1670768;82;21085;-37
2022/02/14 07:26:01;;;;;;;41.70;21.10;;;;;;;-1.43;77.71;101424.86;1694904;82;21075;-46
2022/02/14 07:33:03;;;;;;;50.73;23.15;;;;;;;-1.22;76.40;101423.66;1641377;84;21649;-45
2022/02/14 07:36:10;;;;;;;43.95;22.50;;;;;;;-1.14;75.20;101417.36;1686443;81;21037;-37
2022/02/14 07:38:58;;;;;;;54.18;24.45;;;;;;;-1.04;75.05;101421.43;1696384;82;21416;-37
2022/02/14 07:41:38;;;;;;;47.30;24.35;;;;;;;-0.99;74.50;101416.16;1686595;82;21157;-45
2022/02/14 07:44:07;;;;;;;58.45;26.23;;;;;;;-0.91;74.92;101414.09;1639143;85;20995;-40
2022/02/14 07:46:33;;;;;;;46.63;24.25;;;;;;;-0.81;75.11;101418.64;1697921;82;21027;-46
2022/02/14 07:49:07;;;;;;;45.25;23.22;;;;;;;-0.69;75.02;101416.35;1697393;81;21655;-37
2022/02/14 07:51:52;;;;;;;53.63;24.32;;;;;;;-0.58;73.04;101412.38;1698648;82;21724;-45
2022/02/14 07:54:20;;;;;;;45.90;21.07;;;;;;;-0.54;72.80;101408.29;1699882;82;21037;-36
2022/02/14 07:56:46;;;;;;;52.35;23.45;;;;;;;-0.44;72.90;101409.76;1697186;82;21038;-44
2022/02/14 07:59:14;;;;;;;47.27;22.40;;;;;;;-0.35;73.36;101416.37;1696915;81;21010;-45
2022/02/14 08:01:41;;;;;;;46.65;21.60;;;;;;;-0.23;72.34;101410.16;1697390;82;21043;-39
2022/02/14 08:04:08;;;;;;;45.12;22.90;;;;;;;-0.14;72.18;101418.05;1681806;83;20998;-37
2022/02/14 08:06:41;;;;;;;41.65;23.07;;;;;;;-0.06;72.13;101414.65;1686427;83;21499;-44
2022/02/14 08:09:18;;;;;;;42.48;20.30;;;;;;;0.09;72.28;101413.01;1681296;83;21922;-37
2022/02/14 08:15:45;;;;;;;31.17;17.20;;;;;;;0.46;71.81;101402.28;1649244;84;21683;-44
2022/02/14 08:19:29;;;;;;;37.05;17.52;;;;;;;0.66;70.50;101400.48;1666599;83;20991;-46
2022/02/14 08:23:21;;;;;;;33.25;15.88;;;;;;;0.88;70.07;101400.02;1679024;82;21376;-45
2022/02/14 08:31:06;;;;;;;31.60;16.50;;;;;;;1.26;67.45;101394.38;1683311;83;20982;-45
2022/02/14 08:35:10;;;;;;;28.45;15.70;;;;;;;1.48;66.91;101396.85;1665870;84;21457;-45
2022/02/14 08:41:46;;;;;;;26.27;15.60;;;;;;;1.85;64.83;101402.27;1684359;83;21022;-36
2022/02/14 08:44:13;;;;;;;22.55;12.33;;;;;;;1.99;64.15;101403.00;1679952;83;21099;-44
2022/02/14 08:46:39;;;;;;;26.07;12.90;;;;;;;2.11;62.79;101403.63;1658588;83;21103;-45
2022/02/14 08:49:06;;;;;;;33.83;14.00;;;;;;;2.20;62.50;101404.09;1685921;82;21490;-46
2022/02/14 08:51:34;;;;;;;23.55;12.47;;;;;;;2.31;62.33;101400.36;1685764;81;21923;-46
2022/02/14 08:55:00;;;;;;;20.85;10.95;;;;;;;2.42;61.88;101393.16;1681410;82;21595;-38
2022/02/14 09:01:33;;;;;;;17.67;9.63;;;;;;;2.79;59.91;101391.11;1677419;83;21575;-44
2022/02/14 09:04:00;;;;;;;23.90;9.38;;;;;;;2.94;58.85;101386.66;1688428;83;21549;-37
2022/02/14 09:07:17;;;;;;;18.65;9.53;;;;;;;3.01;57.68;101389.13;1660819;83;21602;-36
2022/02/14 09:10:35;;;;;;;9.58;4.92;;;;;;;3.07;57.75;101385.13;1633556;84;21097;-45
2022/02/14 09:14:32;;;;;;;8.18;4.85;;;;;;;3.15;52.33;101390.28;1670434;83;21446;-45
2022/02/14 09:17:41;;;;;;;8.00;5.00;;;;;;;3.10;50.98;101387.00;1681949;83;21214;-46
2022/02/14 09:21:15;;;;;;;5.42;4.50;;;;;;;3.05;49.81;101375.55;1648243;84;21070;-46
2022/02/14 09:25:08;;;;;;;12.20;4.87;;;;;;;3.02;50.63;101375.01;1651881;84;21533;-51
2022/02/14 09:31:03;;;;;;;8.20;4.58;;;;;;;3.01;48.60;101369.33;1656182;84;21144;-37
2022/02/14 09:34:19;;;;;;;9.70;4.78;;;;;;;3.05;47.97;101376.84;1639950;84;21027;-37
2022/02/14 09:37:34;;;;;;;10.72;4.78;;;;;;;3.10;48.48;101372.78;1654803;84;21053;-36
2022/02/14 09:40:15;;;;;;;7.58;4.80;;;;;;;3.15;46.98;101361.84;1647563;84;21443;-46
2022/02/14 09:46:17;;;;;;;6.92;3.85;;;;;;;3.20;47.08;101359.06;1634472;84;21054;-44
2022/02/14 09:48:45;;;;;;;7.85;3.83;;;;;;;3.20;44.92;101357.77;1652132;84;21064;-39
2022/02/14 09:51:17;;;;;;;8.63;5.30;;;;;;;3.19;44.88;101348.23;1665475;83;21090;-52
2022/02/14 09:53:45;;;;;;;7.83;4.62;;;;;;;3.19;46.63;101342.19;1660523;83;21340;-49
2022/02/14 09:56:14;;;;;;;10.45;4.60;;;;;;;3.19;46.07;101337.89;1683659;83;21098;-45
2022/02/14 09:58:45;;;;;;;9.55;4.75;;;;;;;3.25;46.80;101336.38;1651212;84;21959;-38
2022/02/14 10:01:13;;;;;;;9.10;4.97;;;;;;;3.33;46.12;101329.88;1667100;84;21129;-45
2022/02/14 10:03:53;;;;;;;9.95;5.37;;;;;;;3.37;46.60;101321.45;1687337;83;21038;-37
2022/02/14 10:06:32;;;;;;;7.72;4.42;;;;;;;3.43;46.59;101313.55;1679359;83;21140;-45
2022/02/14 10:09:58;;;;;;;7.65;4.90;;;;;;;3.54;47.28;101316.62;1660174;84;21657;-38
2022/02/14 10:13:53;;;;;;;8.60;4.92;;;;;;;3.62;43.74;101322.13;1657754;83;21186;-37
2022/02/14 10:17:24;;;;;;;7.12;4.28;;;;;;;3.66;45.38;101304.63;1623444;83;21436;-45
2022/02/14 10:20:21;;;;;;;7.42;4.95;;;;;;;3.82;46.95;101302.27;1680882;83;21521;-46
2022/02/14 10:23:11;;;;;;;11.30;6.37;;;;;;;4.05;45.36;101289.01;1657168;84;21014;-46
2022/02/14 10:34:14;;;;;;;13.50;5.90;;;;;;;5.34;45.25;101272.11;1667406;83;21057;-47
2022/02/14 10:37:35;;;;;;;11.55;5.62;;;;;;;6.15;43.50;101267.61;1681531;82;21080;-37
2022/02/14 10:43:51;;;;;;;13.95;5.50;;;;;;;7.71;40.61;101252.36;1663026;82;21010;-49
2022/02/14 10:46:43;;;;;;;9.55;5.70;;;;;;;8.21;39.77;101250.15;1660779;83;20995;-46
2022/02/14 10:49:31;;;;;;;7.35;5.03;;;;;;;8.72;39.55;101244.44;1661689;83;21022;-47
2022/02/14 10:52:23;;;;;;;12.13;5.60;;;;;;;9.15;37.99;101238.83;1663435;83;21503;-47
2022/02/14 10:55:32;;;;;;;12.10;5.30;;;;;;;9.49;38.41;101232.98;1685923;83;21050;-39
2022/02/14 10:58:45;;;;;;;11.43;5.10;;;;;;;9.96;37.00;101226.43;1634472;84;21104;-48
2022/02/14 11:02:09;;;;;;;12.23;5.03;;;;;;;10.36;35.84;101223.64;1687738;82;21636;-48
2022/02/14 11:09:18;;;;;;;6.58;4.00;;;;;;;10.79;34.09;101219.48;1697899;82;21053;-41
2022/02/14 11:13:06;;;;;;;9.30;4.70;;;;;;;11.03;32.74;101217.62;1705187;82;21632;-48
2022/02/14 11:19:57;;;;;;;7.42;3.47;;;;;;;11.29;31.42;101204.83;1687177;82;21046;-49
2022/02/14 11:22:42;;;;;;;15.28;4.62;;;;;;;11.54;31.78;101214.73;1663137;83;21085;-40
2022/02/14 11:25:32;;;;;;;6.83;4.03;;;;;;;12.04;31.06;101199.05;1631210;85;21080;-39
2022/02/14 11:28:49;;;;;;;8.20;4.45;;;;;;;12.23;29.27;101200.54;1653513;84;20998;-41
2022/02/14 11:31:40;;;;;;;6.67;4.10;;;;;;;12.33;29.47;101197.96;1684721;82;25097;-39
2022/02/14 11:35:20;;;;;;;8.08;3.72;;;;;;;12.68;29.16;101189.87;1689482;82;21015;-39
2022/02/14 11:38:17;;;;;;;9.50;3.90;;;;;;;12.91;27.44;101183.86;1669779;83;21053;-47
2022/02/14 11:41:44;;;;;;;7.60;3.77;;;;;;;12.87;28.30;101176.42;1699241;82;21060;-40
2022/02/14 11:51:53;;;;;;;7.58;4.37;;;;;;;13.22;27.36;101167.39;1672851;82;21663;-39
2022/02/14 11:54:47;;;;;;;7.45;3.92;;;;;;;12.99;27.13;101160.71;1697963;82;20978;-47
2022/02/14 12:05:26;;;;;;;4.67;3.20;;;;;;;12.65;28.38;101152.23;1695245;82;21447;-40
2022/02/14 12:20:35;;;;;;;6.37;3.92;;;;;;;11.16;30.26;101146.19;1694260;79;21128;-37
2022/02/14 12:23:43;;;;;;;6.62;3.72;;;;;;;10.66;30.56;101143.39;1666572;84;21607;-48
2022/02/14 12:26:19;;;;;;;8.93;3.67;;;;;;;10.34;30.93;101142.09;1661356;84;21525;-47
2022/02/14 12:31:46;;;;;;;6.78;3.33;;;;;;;10.31;30.95;101148.14;1668207;84;21044;-40
2022/02/14 12:34:12;;;;;;;6.47;4.05;;;;;;;10.47;30.90;101139.22;1668819;85;21069;-52
2022/02/14 12:36:40;;;;;;;6.45;3.70;;;;;;;10.56;30.37;101144.16;1667404;84;22025;-39
2022/02/14 12:39:06;;;;;;;7.33;4.00;;;;;;;10.64;30.84;101135.09;1631766;84;22011;-37
2022/02/14 12:41:34;;;;;;;9.08;3.95;;;;;;;10.61;29.67;101138.95;1671948;84;21606;-39
2022/02/14 12:44:01;;;;;;;6.58;3.67;;;;;;;10.78;29.99;101143.10;1665566;85;20983;-38
2022/02/14 12:46:30;;;;;;;5.70;3.33;;;;;;;10.93;29.88;101136.75;1665704;84;21434;-48
2022/02/14 12:49:12;;;;;;;7.75;3.47;;;;;;;10.66;30.00;101138.59;1651159;85;21045;-46
2022/02/14 12:51:52;;;;;;;9.08;3.35;;;;;;;10.44;30.89;101139.19;1674509;83;21548;-39
2022/02/14 12:54:19;;;;;;;4.72;3.60;;;;;;;10.49;30.03;101132.25;1663738;84;21009;-44
2022/02/14 12:57:11;;;;;;;7.47;3.42;;;;;;;10.36;30.31;101133.83;1647052;85;22047;-47
2022/02/14 12:59:50;;;;;;;9.10;3.95;;;;;;;10.33;29.69;101138.60;1648167;85;21123;-38
2022/02/14 13:02:22;;;;;;;8.48;3.65;;;;;;;10.45;29.68;101139.20;1650785;84;21529;-38
2022/02/14 13:04:49;;;;;;;9.80;3.85;;;;;;;10.79;28.97;101127.44;1671343;84;21011;-48
2022/02/14 13:07:18;;;;;;;7.10;4.35;;;;;;;10.99;28.41;101126.36;1669169;83;22081;-48
2022/02/14 13:09:46;;;;;;;5.78;3.95;;;;;;;11.28;29.19;101128.41;1667882;84;21548;-41
2022/02/14 13:12:22;;;;;;;8.78;4.03;;;;;;;11.77;28.17;101121.90;1663312;82;21084;-47
2022/02/14 13:14:51;;;;;;;5.78;3.58;;;;;;;12.36;27.46;101124.52;1662157;84;21522;-38
2022/02/14 13:17:20;;;;;;;9.45;3.33;;;;;;;12.71;26.75;101115.52;1664574;85;21055;-40
2022/02/14 13:19:58;;;;;;;7.67;3.52;;;;;;;12.57;27.33;101121.99;1650233;85;21627;-47
2022/02/14 13:22:38;;;;;;;7.22;3.83;;;;;;;12.14;28.04;101116.51;1681309;84;21157;-46
2022/02/14 13:25:25;;;;;;;6.60;3.62;;;;;;;11.49;28.66;101117.28;1657101;85;21469;-48
2022/02/14 13:27:54;;;;;;;8.13;3.85;;;;;;;10.84;29.31;101117.91;1681660;84;21375;-48
2022/02/14 13:30:22;;;;;;;9.30;3.67;;;;;;;10.50;29.84;101116.60;1676605;84;20997;-48
2022/02/14 13:32:50;;;;;;;7.17;4.28;;;;;;;10.39;30.04;101122.12;1690599;84;21403;-47
2022/02/14 13:35:26;;;;;;;10.15;4.15;;;;;;;10.08;30.04;101116.39;1681173;83;21411;-49
2022/02/14 13:37:58;;;;;;;8.45;3.98;;;;;;;9.66;30.57;101127.48;1689506;84;20974;-48
2022/02/14 13:40:35;;;;;;;7.37;3.90;;;;;;;9.18;31.54;101127.06;1691896;84;21040;-48
2022/02/14 13:43:26;;;;;;;6.35;3.65;;;;;;;8.84;32.17;101122.91;1674789;84;21524;-47
2022/02/14 13:45:58;;;;;;;6.45;3.67;;;;;;;8.67;32.68;101124.75;1685146;83;21061;-47
2022/02/14 13:48:36;;;;;;;12.10;4.58;;;;;;;8.62;33.37;101118.55;1685686;84;21517;-46
